Time;durP1;ratioP1;P1;durP2;ratioP2;P2;SDS_P1;SDS_P2;PMS_P1;PMS_P2;Temp;Humidity;BMP_temperature;BMP_pressure;BME280_temperature;BME280_humidity;BME280_pressure;Samples;Min_cycle;Max_cycle;Signal;HPM_P1;HPM_P2
2023/02/04 00:00:35;;;;;;;13.43;4.40;;;2.40;99.90;;;;;;4411497;28;657859;-64
2023/02/04 00:03:23;;;;;;;14.63;4.37;;;2.40;99.90;;;;;;4408073;28;659271;-65
2023/02/04 00:06:10;;;;;;;9.50;3.80;;;2.40;99.90;;;;;;4422568;28;657911;-65
2023/02/04 00:08:59;;;;;;;10.47;4.63;;;2.40;99.90;;;;;;4431717;28;657622;-65
2023/02/04 00:11:46;;;;;;;10.10;4.40;;;2.30;99.90;;;;;;4416222;28;658291;-65
2023/02/04 00:14:33;;;;;;;8.83;3.93;;;2.40;99.90;;;;;;4431674;28;658913;-65
2023/02/04 00:17:21;;;;;;;9.33;3.03;;;2.40;99.90;;;;;;4415140;28;656788;-65
2023/02/04 00:20:09;;;;;;;13.43;4.07;;;2.40;99.90;;;;;;4440806;28;657095;-65
2023/02/04 00:22:56;;;;;;;7.83;2.20;;;2.40;99.90;;;;;;4410476;28;658903;-65
2023/02/04 00:25:44;;;;;;;11.83;3.63;;;2.40;99.90;;;;;;4433467;28;656801;-65
2023/02/04 00:28:32;;;;;;;5.63;2.90;;;2.40;99.90;;;;;;4411204;28;658217;-65
2023/02/04 00:31:19;;;;;;;5.93;2.93;;;2.40;99.90;;;;;;4435993;28;656394;-65
2023/02/04 00:34:06;;;;;;;6.93;2.83;;;2.40;99.90;;;;;;4418506;28;657065;-65
2023/02/04 00:36:53;;;;;;;7.67;3.10;;;2.40;99.90;;;;;;4435586;28;658211;-65
2023/02/04 00:39:41;;;;;;;7.83;2.90;;;2.30;99.90;;;;;;4348379;28;656655;-65
2023/02/04 00:42:29;;;;;;;8.43;3.47;;;2.30;99.90;;;;;;4348618;28;657160;-65
2023/02/04 00:45:16;;;;;;;8.00;3.47;;;2.30;99.90;;;;;;4416950;28;656314;-65
2023/02/04 00:48:04;;;;;;;10.07;3.60;;;2.20;99.90;;;;;;4435321;28;657148;-65
2023/02/04 00:50:52;;;;;;;8.13;3.45;;;2.20;99.90;;;;;;4413178;28;658061;-65
2023/02/04 00:53:40;;;;;;;7.73;3.37;;;2.20;99.90;;;;;;4435344;28;657105;-65
2023/02/04 00:56:27;;;;;;;6.77;3.30;;;2.20;99.90;;;;;;4436612;28;656889;-65
2023/02/04 00:59:17;;;;;;;8.43;3.50;;;2.20;99.90;;;;;;4429220;28;657463;-65
2023/02/04 01:02:04;;;;;;;8.57;2.87;;;2.20;99.90;;;;;;4446971;28;657069;-65
2023/02/04 01:04:51;;;;;;;9.07;2.17;;;2.10;99.90;;;;;;4426079;28;656856;-65
2023/02/04 01:07:38;;;;;;;13.07;3.92;;;2.20;99.90;;;;;;4437622;28;658049;-65
2023/02/04 01:10:25;;;;;;;8.50;3.43;;;2.10;99.90;;;;;;4423486;28;657321;-65
2023/02/04 01:13:13;;;;;;;9.10;3.40;;;2.10;99.90;;;;;;4439565;28;657277;-66
2023/02/04 01:16:02;;;;;;;6.83;2.90;;;2.10;99.90;;;;;;4428413;28;656610;-65
2023/02/04 01:18:49;;;;;;;10.13;3.80;;;2.00;99.90;;;;;;4439043;28;656246;-65
2023/02/04 01:21:36;;;;;;;6.33;3.27;;;2.10;99.90;;;;;;4413260;28;658340;-65
2023/02/04 01:24:23;;;;;;;8.73;3.37;;;2.10;99.90;;;;;;4406894;28;657668;-65
2023/02/04 01:27:10;;;;;;;9.87;3.43;;;2.20;99.90;;;;;;4391838;28;656818;-65
2023/02/04 01:29:58;;;;;;;7.87;3.10;;;2.20;99.90;;;;;;4410241;28;659175;-65
2023/02/04 01:32:47;;;;;;;6.33;2.20;;;2.20;99.90;;;;;;4399053;28;656730;-65
2023/02/04 01:35:35;;;;;;;6.50;2.58;;;2.20;99.90;;;;;;4400051;28;656069;-65
2023/02/04 01:38:22;;;;;;;4.27;2.17;;;2.30;99.90;;;;;;4407302;28;657539;-65
2023/02/04 01:41:10;;;;;;;5.10;2.27;;;2.30;99.90;;;;;;4402741;28;656423;-65
2023/02/04 01:43:57;;;;;;;5.23;1.80;;;2.30;99.90;;;;;;4409620;28;657606;-65
2023/02/04 01:46:45;;;;;;;4.00;2.30;;;2.30;99.90;;;;;;4410423;28;657118;-65
2023/02/04 01:49:34;;;;;;;5.10;2.00;;;2.30;99.90;;;;;;4405525;28;657818;-65
2023/02/04 01:52:21;;;;;;;9.90;2.00;;;2.30;99.90;;;;;;4391561;28;656570;-65
2023/02/04 01:55:12;;;;;;;3.17;2.13;;;2.30;99.90;;;;;;4405331;28;657867;-65
2023/02/04 01:58:01;;;;;;;1.70;1.27;;;2.30;99.90;;;;;;4388399;28;656839;-65
2023/02/04 02:00:49;;;;;;;3.57;1.83;;;2.30;99.90;;;;;;4405704;28;656467;-65
2023/02/04 02:03:36;;;;;;;3.93;1.90;;;2.20;99.90;;;;;;4390629;28;656324;-65
2023/02/04 02:06:24;;;;;;;1.83;1.40;;;2.10;99.90;;;;;;4409509;28;657513;-66
2023/02/04 02:09:12;;;;;;;4.67;1.93;;;2.10;99.90;;;;;;4391450;28;656595;-66
2023/02/04 02:11:59;;;;;;;5.73;1.33;;;2.00;99.90;;;;;;4410725;28;656289;-65
2023/02/04 02:14:46;;;;;;;2.07;1.50;;;2.00;99.90;;;;;;4384946;28;656835;-65
2023/02/04 02:17:33;;;;;;;2.70;1.07;;;1.80;99.90;;;;;;4403626;28;657997;-65
2023/02/04 02:20:22;;;;;;;7.73;2.07;;;1.80;99.90;;;;;;4393554;28;656589;-65
2023/02/04 02:23:15;;;;;;;5.03;1.77;;;1.80;99.90;;;;;;4426921;28;656384;-65
2023/02/04 02:26:04;;;;;;;2.83;1.70;;;1.80;99.90;;;;;;4417478;28;657521;-65
2023/02/04 02:28:51;;;;;;;1.87;1.07;;;1.70;99.90;;;;;;4415256;28;656568;-65
2023/02/04 02:31:38;;;;;;;5.57;1.60;;;1.70;99.90;;;;;;4434629;28;657456;-65
2023/02/04 02:34:26;;;;;;;5.30;1.87;;;1.70;99.90;;;;;;4383759;28;656904;-65
2023/02/04 02:37:13;;;;;;;3.97;2.00;;;1.60;99.90;;;;;;4333838;28;658116;-65
2023/02/04 02:40:01;;;;;;;3.83;1.70;;;1.60;99.90;;;;;;4255736;28;657156;-65
2023/02/04 02:42:50;;;;;;;5.67;1.67;;;1.60;99.90;;;;;;4278888;28;656798;-65
2023/02/04 02:45:38;;;;;;;4.77;2.10;;;1.60;99.90;;;;;;4415576;28;657234;-65
2023/02/04 02:48:25;;;;;;;3.63;2.07;;;1.50;99.90;;;;;;4437262;28;657593;-65
2023/02/04 02:51:12;;;;;;;3.83;2.13;;;1.50;99.90;;;;;;4437280;28;658158;-65
2023/02/04 02:54:00;;;;;;;5.53;2.50;;;1.50;99.90;;;;;;4437090;28;657252;-65
2023/02/04 02:56:47;;;;;;;5.93;2.27;;;1.50;99.90;;;;;;4441412;28;657182;-65
2023/02/04 02:59:37;;;;;;;5.07;2.10;;;1.40;99.90;;;;;;4437024;28;657122;-65
2023/02/04 03:02:24;;;;;;;3.63;1.60;;;1.30;99.90;;;;;;4439114;28;656356;-65
2023/02/04 03:05:11;;;;;;;3.20;2.10;;;1.20;99.90;;;;;;4422558;28;656940;-65
2023/02/04 03:07:58;;;;;;;3.20;1.92;;;1.20;99.90;;;;;;4442365;28;657931;-65
2023/02/04 03:10:45;;;;;;;3.07;2.03;;;1.20;99.90;;;;;;4415745;28;656776;-65
2023/02/04 03:13:33;;;;;;;6.47;2.40;;;1.10;99.90;;;;;;4440698;28;658254;-65
2023/02/04 03:16:22;;;;;;;4.60;2.73;;;1.10;99.90;;;;;;4417760;28;656389;-65
2023/02/04 03:19:09;;;;;;;4.28;2.28;;;0.90;99.90;;;;;;4444050;28;656399;-65
2023/02/04 03:21:56;;;;;;;2.80;1.83;;;0.90;99.90;;;;;;4414208;28;656665;-65
2023/02/04 03:24:44;;;;;;;3.27;2.20;;;0.80;99.90;;;;;;4431221;28;656944;-65
2023/02/04 03:27:31;;;;;;;3.83;2.10;;;0.80;99.90;;;;;;4421139;28;656669;-65
2023/02/04 03:30:18;;;;;;;3.87;1.90;;;0.80;99.90;;;;;;4448943;28;657416;-65
2023/02/04 03:33:07;;;;;;;3.07;1.57;;;0.80;99.90;;;;;;4415457;28;657325;-65
2023/02/04 03:35:54;;;;;;;2.80;1.83;;;0.70;99.90;;;;;;4432740;28;656740;-66
2023/02/04 03:38:41;;;;;;;4.23;1.77;;;0.70;99.90;;;;;;4424285;28;656708;-66
2023/02/04 03:41:29;;;;;;;3.80;2.07;;;0.60;99.90;;;;;;4441135;28;657606;-66
2023/02/04 03:44:17;;;;;;;5.07;1.83;;;0.70;99.90;;;;;;4415580;28;656422;-66
2023/02/04 03:47:04;;;;;;;2.83;1.70;;;0.70;99.90;;;;;;4445035;28;656913;-65
2023/02/04 03:49:53;;;;;;;4.20;1.47;;;0.70;99.90;;;;;;4419650;28;656462;-65
2023/02/04 03:52:40;;;;;;;3.00;1.30;;;0.60;99.90;;;;;;4420117;28;657109;-66
2023/02/04 03:55:27;;;;;;;1.93;1.23;;;0.50;99.90;;;;;;4441514;28;657410;-66
2023/02/04 03:58:15;;;;;;;2.30;1.10;;;0.50;99.90;;;;;;4439096;28;656590;-66
2023/02/04 04:01:02;;;;;;;4.00;1.47;;;0.50;99.90;;;;;;4438307;28;656958;-66
2023/02/04 04:03:50;;;;;;;5.70;1.60;;;0.50;99.90;;;;;;4437289;28;657405;-66
2023/02/04 04:06:39;;;;;;;7.13;2.73;;;0.50;99.90;;;;;;4437040;28;657325;-66
2023/02/04 04:09:26;;;;;;;4.60;2.22;;;0.50;99.90;;;;;;4423831;28;657068;-66
2023/02/04 04:12:13;;;;;;;6.10;2.90;;;0.50;99.90;;;;;;4446304;28;657579;-66
2023/02/04 04:15:01;;;;;;;5.37;2.43;;;0.50;99.90;;;;;;4413851;28;656873;-66
2023/02/04 04:17:48;;;;;;;4.27;2.60;;;0.50;99.90;;;;;;4435234;28;657045;-66
2023/02/04 04:20:35;;;;;;;5.43;2.90;;;0.50;99.90;;;;;;4423003;28;656714;-66
2023/02/04 04:23:24;;;;;;;5.67;2.63;;;0.50;99.90;;;;;;4435664;28;657909;-66
2023/02/04 04:26:11;;;;;;;5.03;2.70;;;0.40;99.90;;;;;;4418141;28;657026;-66
2023/02/04 04:28:58;;;;;;;6.70;3.60;;;0.20;99.90;;;;;;4439151;28;657074;-66
2023/02/04 04:31:46;;;;;;;6.57;4.10;;;0.20;99.90;;;;;;4420323;28;656559;-65
2023/02/04 04:34:33;;;;;;;8.23;4.13;;;0.10;99.90;;;;;;4444548;28;657886;-66
2023/02/04 04:37:20;;;;;;;5.53;3.43;;;0.00;99.90;;;;;;4428811;28;656891;-66
2023/02/04 04:40:11;;;;;;;3.77;2.73;;;0.00;99.90;;;;;;4446350;28;657938;-66
2023/02/04 04:42:58;;;;;;;3.50;2.23;;;-0.10;99.90;;;;;;4411062;28;657919;-65
2023/02/04 04:45:45;;;;;;;7.87;3.70;;;-0.30;99.90;;;;;;4421942;28;658380;-65
2023/02/04 04:48:32;;;;;;;4.90;2.90;;;-0.40;99.90;;;;;;4451994;28;658023;-66
2023/02/04 04:51:20;;;;;;;7.87;3.57;;;-0.40;99.90;;;;;;4434625;28;657729;-66
2023/02/04 04:54:07;;;;;;;6.63;3.63;;;-0.50;99.90;;;;;;4448077;28;658589;-66
2023/02/04 04:56:57;;;;;;;6.37;3.43;;;-0.60;99.90;;;;;;4433860;28;657970;-66
2023/02/04 04:59:44;;;;;;;8.27;3.90;;;-0.70;99.90;;;;;;4445090;28;657424;-66
2023/02/04 05:02:31;;;;;;;9.30;4.07;;;-0.80;99.90;;;;;;4423726;28;658132;-66
2023/02/04 05:05:18;;;;;;;4.75;3.28;;;-0.80;99.90;;;;;;4444977;28;658687;-66
2023/02/04 05:08:06;;;;;;;3.90;2.50;;;-0.90;99.90;;;;;;4418488;28;657792;-65
2023/02/04 05:10:53;;;;;;;6.03;3.50;;;-1.00;99.90;;;;;;4437971;28;658317;-65
2023/02/04 05:13:42;;;;;;;6.73;3.57;;;-1.00;99.90;;;;;;4418955;28;657595;-66
2023/02/04 05:16:29;;;;;;;4.87;2.80;;;-1.00;99.90;;;;;;4438777;28;657109;-66
2023/02/04 05:19:16;;;;;;;10.20;3.90;;;-1.10;99.90;;;;;;4427210;28;659941;-66
2023/02/04 05:22:03;;;;;;;12.50;3.60;;;-1.10;99.90;;;;;;4430495;28;660120;-66
2023/02/04 05:24:51;;;;;;;9.03;4.17;;;-1.10;99.90;;;;;;4415879;28;658378;-66
2023/02/04 05:27:38;;;;;;;4.68;3.25;;;-1.10;99.90;;;;;;4445347;28;658482;-66
2023/02/04 05:30:27;;;;;;;5.33;3.00;;;-1.20;99.90;;;;;;4423255;28;657735;-66
2023/02/04 05:33:14;;;;;;;6.47;3.27;;;-1.20;99.90;;;;;;4438006;28;657677;-66
2023/02/04 05:36:01;;;;;;;4.93;3.30;;;-1.20;99.90;;;;;;4418159;28;657789;-66
2023/02/04 05:38:48;;;;;;;6.43;3.88;;;-1.30;99.90;;;;;;4440242;28;658834;-66
2023/02/04 05:41:35;;;;;;;4.93;3.30;;;-1.30;99.90;;;;;;4417194;28;657613;-65
2023/02/04 05:44:23;;;;;;;5.80;3.00;;;-1.30;99.90;;;;;;4443136;28;658607;-66
2023/02/04 05:47:12;;;;;;;4.77;2.93;;;-1.30;99.90;;;;;;4426696;28;657597;-65
2023/02/04 05:49:59;;;;;;;6.00;3.47;;;-1.40;99.90;;;;;;4443000;28;657463;-66
2023/02/04 05:52:46;;;;;;;8.17;3.90;;;-1.40;99.90;;;;;;4421771;28;657977;-66
2023/02/04 05:55:33;;;;;;;5.32;2.88;;;-1.40;99.90;;;;;;4440825;28;659123;-66
2023/02/04 05:58:20;;;;;;;4.03;2.57;;;-1.40;99.90;;;;;;4417909;28;657673;-65
2023/02/04 06:01:08;;;;;;;6.03;3.30;;;-1.50;99.90;;;;;;4438852;28;658028;-65
2023/02/04 06:03:57;;;;;;;5.70;3.33;;;-1.50;99.90;;;;;;4429956;28;657198;-66
2023/02/04 06:06:44;;;;;;;6.87;2.90;;;-1.50;99.90;;;;;;4432482;28;657489;-65
2023/02/04 06:09:31;;;;;;;2.43;1.90;;;-1.50;99.90;;;;;;4424473;28;658074;-65
2023/02/04 06:12:18;;;;;;;5.57;2.60;;;-1.50;99.90;;;;;;4442429;28;658625;-65
2023/02/04 06:15:07;;;;;;;14.17;3.20;;;-1.60;99.90;;;;;;4419751;28;657907;-66
2023/02/04 06:17:54;;;;;;;3.57;2.27;;;-1.60;99.90;;;;;;4437125;28;660790;-65
2023/02/04 06:20:42;;;;;;;4.80;2.63;;;-1.60;99.90;;;;;;4423092;28;658371;-65
2023/02/04 06:23:30;;;;;;;5.67;3.13;;;-1.50;99.90;;;;;;4431727;28;657394;-66
2023/02/04 06:26:18;;;;;;;8.67;3.57;;;-1.50;99.90;;;;;;4438434;28;658798;-66
2023/02/04 06:29:05;;;;;;;8.33;4.23;;;-1.50;99.90;;;;;;4433341;28;657932;-65
2023/02/04 06:31:52;;;;;;;9.73;3.67;;;-1.50;99.90;;;;;;4443873;28;658481;-66
2023/02/04 06:34:40;;;;;;;10.63;4.70;;;-1.50;99.90;;;;;;4429498;28;658009;-66
2023/02/04 06:37:29;;;;;;;6.87;3.40;;;-1.60;99.90;;;;;;4441089;28;659054;-65
2023/02/04 06:40:16;;;;;;;5.70;2.70;;;-1.60;99.90;;;;;;4418321;28;658157;-66
2023/02/04 06:43:04;;;;;;;5.73;3.57;;;-1.60;99.90;;;;;;4436126;28;657619;-65
2023/02/04 06:45:51;;;;;;;6.20;2.43;;;-1.60;99.90;;;;;;4232542;28;658188;-66
2023/02/04 06:48:38;;;;;;;4.07;2.40;;;-1.60;99.90;;;;;;4258301;28;658149;-66
2023/02/04 06:51:26;;;;;;;5.97;3.43;;;-1.60;99.90;;;;;;4328291;28;658059;-66
2023/02/04 06:54:15;;;;;;;7.73;3.60;;;-1.60;99.90;;;;;;4434707;28;658946;-66
2023/02/04 06:57:05;;;;;;;11.50;5.07;;;-1.60;99.90;;;;;;4413093;28;658918;-66
2023/02/04 06:59:52;;;;;;;13.00;5.50;;;-1.60;99.90;;;;;;4411522;28;658567;-66
2023/02/04 07:02:41;;;;;;;6.20;2.97;;;-1.60;99.90;;;;;;4434487;28;658987;-66
2023/02/04 07:05:28;;;;;;;6.87;3.70;;;-1.60;99.90;;;;;;4414352;28;658215;-66
2023/02/04 07:08:15;;;;;;;5.85;2.58;;;-1.60;99.90;;;;;;4415375;28;658240;-66
2023/02/04 07:11:04;;;;;;;13.83;7.00;;;-1.60;99.90;;;;;;4434421;28;658981;-66
2023/02/04 07:13:51;;;;;;;6.07;3.63;;;-1.60;99.90;;;;;;4408645;28;659084;-72
2023/02/04 07:16:38;;;;;;;8.77;4.57;;;-1.60;99.90;;;;;;4433512;28;658962;-72
2023/02/04 07:19:26;;;;;;;13.13;6.90;;;-1.60;99.90;;;;;;4416622;28;657620;-73
2023/02/04 07:22:13;;;;;;;8.80;5.07;;;-1.60;99.90;;;;;;4434943;28;658564;-73
2023/02/04 07:25:00;;;;;;;10.20;6.03;;;-1.50;99.90;;;;;;4421613;28;657404;-73
2023/02/04 07:27:49;;;;;;;10.77;5.20;;;-1.60;99.90;;;;;;4436830;28;659834;-72
2023/02/04 07:30:36;;;;;;;62.23;12.93;;;-1.60;99.90;;;;;;4411572;28;658437;-72
2023/02/04 07:33:23;;;;;;;11.63;5.10;;;-1.60;99.90;;;;;;4438434;28;660422;-71
2023/02/04 07:36:11;;;;;;;9.60;4.83;;;-1.60;99.90;;;;;;4408875;28;659104;-72
2023/02/04 07:38:58;;;;;;;14.07;6.27;;;-1.60;99.90;;;;;;4432527;28;658725;-71
2023/02/04 07:41:45;;;;;;;11.83;5.00;;;-1.60;99.90;;;;;;4417679;28;659648;-72
2023/02/04 07:44:34;;;;;;;8.93;4.37;;;-1.70;99.90;;;;;;4437443;28;659244;-72
2023/02/04 07:47:21;;;;;;;8.90;3.80;;;-1.60;99.90;;;;;;4411256;28;657590;-72
2023/02/04 07:50:09;;;;;;;13.93;4.57;;;-1.60;99.90;;;;;;4434723;28;658638;-72
2023/02/04 07:52:56;;;;;;;9.33;4.23;;;-1.60;99.90;;;;;;4419579;28;658607;-72
2023/02/04 07:55:43;;;;;;;9.97;4.53;;;-1.60;99.90;;;;;;4438191;28;658772;-72
2023/02/04 07:58:31;;;;;;;9.33;4.80;;;-1.50;99.90;;;;;;4415440;28;657165;-72
2023/02/04 08:01:19;;;;;;;14.03;7.30;;;-1.50;99.90;;;;;;4436837;28;658352;-72
2023/02/04 08:04:10;;;;;;;13.90;5.80;;;-1.50;99.90;;;;;;4413848;28;658916;-73
2023/02/04 08:06:57;;;;;;;17.37;5.87;;;-1.50;99.90;;;;;;4411806;28;659510;-72
2023/02/04 08:09:46;;;;;;;29.90;8.50;;;-1.50;99.90;;;;;;4434555;28;658847;-72
2023/02/04 08:12:33;;;;;;;23.13;9.07;;;-1.50;99.90;;;;;;4451352;28;659299;-71
2023/02/04 08:15:21;;;;;;;9.63;4.87;;;-1.50;99.90;;;;;;4413656;28;659093;-72
2023/02/04 08:18:09;;;;;;;8.80;4.40;;;-1.50;99.90;;;;;;4442077;28;657554;-72
2023/02/04 08:20:58;;;;;;;10.70;3.90;;;-1.50;99.90;;;;;;4405831;28;658258;-72
2023/02/04 08:23:45;;;;;;;10.93;4.80;;;-1.40;99.90;;;;;;4425855;28;659416;-72
2023/02/04 08:26:32;;;;;;;6.23;3.40;;;-1.20;99.90;;;;;;4440509;28;659506;-72
2023/02/04 08:29:20;;;;;;;6.57;3.57;;;-1.00;99.90;;;;;;4440187;28;657496;-72
2023/02/04 08:32:08;;;;;;;8.90;4.67;;;-0.90;99.90;;;;;;4437163;28;658129;-72
2023/02/04 08:34:57;;;;;;;7.63;4.27;;;-0.90;99.90;;;;;;4416373;28;657506;-72
2023/02/04 08:37:44;;;;;;;10.13;4.30;;;-0.90;99.90;;;;;;4431681;28;657537;-71
2023/02/04 08:40:32;;;;;;;7.27;3.57;;;-0.90;99.90;;;;;;4419705;28;658640;-71
2023/02/04 08:43:19;;;;;;;7.47;3.83;;;-0.90;99.90;;;;;;4443322;28;656556;-73
2023/02/04 08:46:06;;;;;;;7.87;4.37;;;-0.60;99.90;;;;;;4419487;28;657835;-72
2023/02/04 08:48:53;;;;;;;5.43;3.30;;;0.10;99.90;;;;;;4441516;28;659090;-72
2023/02/04 08:51:42;;;;;;;8.00;4.23;;;0.60;99.90;;;;;;4421040;28;656382;-72
2023/02/04 08:54:29;;;;;;;7.75;2.88;;;0.70;99.90;;;;;;4431120;28;656747;-71
2023/02/04 08:57:16;;;;;;;10.37;5.07;;;0.50;99.90;;;;;;4414557;28;657038;-71
2023/02/04 09:00:04;;;;;;;10.13;4.80;;;0.30;99.90;;;;;;4431626;28;657774;-71
2023/02/04 09:02:51;;;;;;;7.40;4.00;;;0.40;99.90;;;;;;4417148;28;657797;-71
2023/02/04 09:05:39;;;;;;;8.63;4.27;;;0.60;99.90;;;;;;4442632;28;656202;-71
2023/02/04 09:08:27;;;;;;;5.47;2.60;;;0.60;99.90;;;;;;4421442;28;656853;-72
2023/02/04 09:11:14;;;;;;;7.47;4.07;;;0.40;99.90;;;;;;4437356;28;656793;-72
2023/02/04 09:14:02;;;;;;;8.53;4.40;;;0.50;99.90;;;;;;4423184;28;657076;-72
2023/02/04 09:16:49;;;;;;;7.60;4.17;;;0.80;99.90;;;;;;4442702;28;656872;-72
2023/02/04 09:19:36;;;;;;;6.63;3.77;;;1.30;99.90;;;;;;4416212;28;657113;-72
2023/02/04 09:22:23;;;;;;;5.90;3.70;;;1.60;99.90;;;;;;4444874;28;657926;-72
2023/02/04 09:25:12;;;;;;;9.07;4.60;;;1.30;99.90;;;;;;4415244;28;656460;-73
2023/02/04 09:27:59;;;;;;;9.07;4.10;;;1.70;99.90;;;;;;4440071;28;656088;-72
2023/02/04 09:30:47;;;;;;;13.67;5.50;;;1.40;99.90;;;;;;4422191;28;657076;-72
2023/02/04 09:33:34;;;;;;;10.10;4.90;;;1.10;99.90;;;;;;4441811;28;657306;-73
2023/02/04 09:36:22;;;;;;;6.17;3.90;;;1.10;99.90;;;;;;4419922;28;658494;-72
2023/02/04 09:39:10;;;;;;;10.40;4.70;;;1.30;99.90;;;;;;4438349;28;656463;-72
2023/02/04 09:41:58;;;;;;;9.93;4.80;;;1.90;99.90;;;;;;4415337;28;659177;-72
2023/02/04 09:44:45;;;;;;;8.77;4.50;;;2.40;99.90;;;;;;4421172;28;657121;-73
2023/02/04 09:47:33;;;;;;;8.87;5.47;;;2.50;99.90;;;;;;4441701;28;657645;-73
2023/02/04 09:50:21;;;;;;;8.10;4.57;;;2.20;99.90;;;;;;4426760;28;656331;-72
2023/02/04 09:53:11;;;;;;;8.93;4.80;;;2.00;99.90;;;;;;4441266;28;657031;-72
2023/02/04 09:55:58;;;;;;;6.43;4.10;;;1.70;99.90;;;;;;4418795;28;658806;-71
2023/02/04 09:58:47;;;;;;;9.20;5.23;;;1.90;99.90;;;;;;4417202;28;657044;-74
2023/02/04 10:01:34;;;;;;;7.13;4.20;;;1.70;99.90;;;;;;4446504;28;656550;-70
2023/02/04 10:04:21;;;;;;;8.30;5.00;;;2.40;99.90;;;;;;4416255;28;656961;-72
2023/02/04 10:07:10;;;;;;;7.70;4.60;;;3.40;99.90;;;;;;4441676;28;656538;-72
2023/02/04 10:09:57;;;;;;;9.73;5.30;;;4.10;99.90;;;;;;4427709;28;657806;-71
2023/02/04 10:12:44;;;;;;;8.00;4.73;;;4.50;99.90;;;;;;4442196;28;656922;-71
2023/02/04 10:15:33;;;;;;;7.17;4.13;;;4.10;99.90;;;;;;4412516;28;656724;-70
2023/02/04 10:18:23;;;;;;;8.45;3.97;;;3.20;99.90;;;;;;4431840;28;657009;-70
2023/02/04 10:21:15;;;;;;;7.68;4.32;;;2.70;99.90;;;;;;4421841;28;656217;-70
2023/02/04 10:24:04;;;;;;;7.17;3.73;;;1.90;99.90;;;;;;4417629;28;657232;-71
2023/02/04 10:26:51;;;;;;;8.93;4.10;;;2.30;99.90;;;;;;4426500;28;656807;-70
2023/02/04 10:29:41;;;;;;;5.47;3.47;;;2.70;99.90;;;;;;4437850;28;657127;-71
2023/02/04 10:32:30;;;;;;;8.33;3.30;;;3.80;99.90;;;;;;4417669;28;657502;-71
2023/02/04 10:35:18;;;;;;;6.72;3.00;;;3.10;98.60;;;;;;4421457;28;657972;-70
2023/02/04 10:38:06;;;;;;;6.60;3.27;;;3.00;99.90;;;;;;4425257;28;656837;-70
2023/02/04 10:41:01;;;;;;;7.87;4.30;;;3.30;99.90;;;;;;4439044;28;657327;-70
2023/02/04 10:43:48;;;;;;;8.63;3.80;;;4.70;98.20;;;;;;4404830;28;657033;-71
2023/02/04 10:46:35;;;;;;;4.87;2.83;;;5.30;92.00;;;;;;4417919;28;657234;-71
2023/02/04 10:49:24;;;;;;;6.20;2.93;;;6.20;81.60;;;;;;4436010;28;656892;-70
2023/02/04 10:52:16;;;;;;;4.80;2.80;;;6.10;78.70;;;;;;4409747;28;656849;-70
2023/02/04 10:55:03;;;;;;;5.50;2.53;;;6.60;71.60;;;;;;4415036;28;656796;-69
2023/02/04 10:57:52;;;;;;;5.07;2.70;;;6.80;71.40;;;;;;4415934;28;657064;-69
2023/02/04 11:00:39;;;;;;;7.53;3.30;;;6.00;70.80;;;;;;4432983;28;657350;-68
2023/02/04 11:03:26;;;;;;;6.20;3.37;;;4.70;75.40;;;;;;4412880;28;657029;-70
2023/02/04 11:06:17;;;;;;;18.57;7.60;;;4.20;77.00;;;;;;4429875;28;656899;-69
2023/02/04 11:09:05;;;;;;;6.70;3.37;;;3.70;82.00;;;;;;4408858;28;657666;-69
2023/02/04 11:11:52;;;;;;;7.87;3.77;;;3.70;81.70;;;;;;4432388;28;656905;-69
2023/02/04 11:14:40;;;;;;;7.80;3.90;;;3.00;84.30;;;;;;4428402;28;656310;-69
2023/02/04 11:17:30;;;;;;;8.73;4.20;;;2.00;95.30;;;;;;4434709;28;656983;-68
2023/02/04 11:20:30;;;;;;;7.90;3.87;;;1.30;99.90;;;;;;4406346;28;657934;-69
2023/02/04 11:23:33;;;;;;;7.13;2.73;;;0.80;99.90;;;;;;4390315;28;657682;-70
2023/02/04 11:26:33;;;;;;;11.47;4.50;;;0.70;99.90;;;;;;4387660;28;657081;-68
2023/02/04 11:29:28;;;;;;;7.53;3.50;;;0.60;99.90;;;;;;4389248;28;658502;-69
2023/02/04 11:32:34;;;;;;;8.63;3.87;;;0.30;99.90;;;;;;4390124;28;657124;-68
2023/02/04 11:35:27;;;;;;;5.47;2.20;;;0.50;99.90;;;;;;4382805;28;656948;-68
2023/02/04 11:38:25;;;;;;;6.30;3.08;;;0.30;99.90;;;;;;4412630;28;656814;-68
2023/02/04 11:41:16;;;;;;;5.37;3.00;;;0.50;99.90;;;;;;4391385;28;657095;-69
2023/02/04 11:44:03;;;;;;;9.23;3.80;;;1.10;99.90;;;;;;4407441;28;657710;-68
2023/02/04 11:46:53;;;;;;;14.57;3.83;;;1.90;99.90;;;;;;4409664;28;656813;-69
2023/02/04 11:49:40;;;;;;;5.47;3.17;;;2.60;99.90;;;;;;4412505;28;657850;-69
2023/02/04 11:52:27;;;;;;;10.00;3.10;;;3.50;94.20;;;;;;4428111;28;657280;-68
2023/02/04 11:55:18;;;;;;;4.90;2.70;;;4.60;92.10;;;;;;4426926;28;657928;-68
2023/02/04 11:58:08;;;;;;;6.77;3.00;;;4.70;82.90;;;;;;4422428;28;656730;-69
2023/02/04 12:00:56;;;;;;;7.00;3.10;;;4.40;78.20;;;;;;4410562;28;656496;-68
2023/02/04 12:03:46;;;;;;;6.47;3.07;;;3.50;78.00;;;;;;4430570;28;656372;-67
2023/02/04 12:06:35;;;;;;;5.37;3.13;;;2.60;81.80;;;;;;4411811;28;657730;-70
2023/02/04 12:09:26;;;;;;;6.80;3.10;;;2.30;85.20;;;;;;4411494;28;658236;-69
2023/02/04 12:12:26;;;;;;;7.27;2.77;;;1.70;87.40;;;;;;4408033;28;657081;-68
2023/02/04 12:15:17;;;;;;;10.53;2.97;;;1.20;89.00;;;;;;4406891;28;657398;-68
2023/02/04 12:18:06;;;;;;;6.23;2.53;;;1.10;93.90;;;;;;4414851;28;657949;-69
2023/02/04 12:20:53;;;;;;;5.33;2.40;;;0.80;95.70;;;;;;4406813;28;657414;-70
2023/02/04 12:23:41;;;;;;;7.10;3.00;;;0.20;96.30;;;;;;4407775;28;656952;-70
2023/02/04 12:26:28;;;;;;;8.30;2.70;;;0.30;99.90;;;;;;4437843;28;656905;-69
2023/02/04 12:29:17;;;;;;;9.02;2.47;;;0.60;99.90;;;;;;4420121;28;656809;-69
2023/02/04 12:32:04;;;;;;;4.07;2.23;;;0.70;99.90;;;;;;4446934;28;657575;-69
2023/02/04 12:34:51;;;;;;;7.87;2.90;;;0.80;99.90;;;;;;4407183;28;656484;-69
2023/02/04 12:37:39;;;;;;;8.13;3.03;;;0.40;99.90;;;;;;4435356;28;656475;-67
2023/02/04 12:40:26;;;;;;;6.57;2.73;;;0.20;99.90;;;;;;4421489;28;656780;-67
2023/02/04 12:43:13;;;;;;;4.37;2.07;;;0.20;99.90;;;;;;4431274;28;657369;-68
2023/02/04 12:46:02;;;;;;;6.27;2.50;;;0.00;99.90;;;;;;4419748;28;656875;-69
2023/02/04 12:48:49;;;;;;;7.30;3.07;;;-0.10;99.90;;;;;;4434484;28;656711;-67
2023/02/04 12:51:36;;;;;;;6.13;2.77;;;-0.20;99.90;;;;;;4291324;28;657973;-70
2023/02/04 12:54:23;;;;;;;7.90;3.13;;;-0.20;99.90;;;;;;4254038;28;657020;-69
2023/02/04 12:57:13;;;;;;;2.50;0.97;;;-0.30;99.90;;;;;;4307623;28;657197;-68
2023/02/04 13:00:00;;;;;;;6.43;2.87;;;0.10;99.90;;;;;;4413158;28;658485;-70
2023/02/04 13:02:49;;;;;;;7.80;2.53;;;0.40;99.90;;;;;;4438888;28;656614;-70
2023/02/04 13:05:36;;;;;;;4.55;2.10;;;0.90;99.90;;;;;;4418139;28;656505;-69
2023/02/04 13:08:23;;;;;;;8.50;2.80;;;0.90;99.30;;;;;;4448594;28;657391;-72
2023/02/04 13:11:11;;;;;;;4.20;2.00;;;1.20;99.90;;;;;;4411039;28;656767;-70
2023/02/04 13:13:58;;;;;;;3.10;1.80;;;1.60;99.60;;;;;;4446966;28;657217;-72
2023/02/04 13:16:45;;;;;;;5.33;1.77;;;1.50;94.90;;;;;;4421791;28;656678;-69
2023/02/04 13:19:34;;;;;;;2.73;1.30;;;1.40;94.30;;;;;;4445392;28;656673;-70
2023/02/04 13:22:21;;;;;;;5.20;1.90;;;1.90;92.20;;;;;;4424899;28;657248;-71
2023/02/04 13:25:10;;;;;;;3.35;1.50;;;1.50;93.00;;;;;;4443815;28;657352;-72
2023/02/04 13:27:57;;;;;;;3.10;1.63;;;0.90;94.70;;;;;;4415511;28;656951;-70
2023/02/04 13:30:44;;;;;;;4.00;2.10;;;0.50;99.60;;;;;;4438067;28;656567;-70
2023/02/04 13:33:32;;;;;;;5.13;2.10;;;0.00;99.90;;;;;;4423574;28;656889;-70
2023/02/04 13:36:20;;;;;;;4.87;2.23;;;0.30;99.90;;;;;;4448269;28;656401;-70
2023/02/04 13:39:08;;;;;;;5.27;2.43;;;0.30;99.90;;;;;;4415215;28;656821;-71
2023/02/04 13:41:55;;;;;;;4.83;2.10;;;1.90;99.90;;;;;;4425907;28;656851;-71
2023/02/04 13:44:42;;;;;;;5.27;2.50;;;2.30;94.10;;;;;;4438205;28;657135;-70
2023/02/04 13:47:30;;;;;;;4.60;2.57;;;3.30;93.60;;;;;;4443977;28;656482;-70
2023/02/04 13:50:17;;;;;;;11.23;2.80;;;4.20;86.60;;;;;;4447190;28;656182;-69
2023/02/04 13:53:07;;;;;;;7.40;2.90;;;3.50;81.00;;;;;;4433348;28;658393;-70
2023/02/04 13:55:54;;;;;;;5.20;2.30;;;2.70;85.60;;;;;;4443047;28;656672;-70
2023/02/04 13:58:42;;;;;;;6.47;2.77;;;1.50;87.80;;;;;;4418870;28;656740;-70
2023/02/04 14:01:30;;;;;;;4.97;2.53;;;1.00;92.20;;;;;;4446686;28;656093;-69
2023/02/04 14:04:17;;;;;;;6.43;2.90;;;0.50;95.20;;;;;;4423022;28;657490;-71
2023/02/04 14:07:04;;;;;;;7.40;2.80;;;0.40;96.90;;;;;;4444149;28;656007;-70
2023/02/04 14:09:53;;;;;;;5.77;2.33;;;0.30;97.90;;;;;;4425849;28;656871;-70
2023/02/04 14:12:40;;;;;;;3.47;1.87;;;0.30;99.40;;;;;;4430967;28;656918;-71
2023/02/04 14:15:28;;;;;;;5.77;2.07;;;0.10;98.30;;;;;;4446131;28;657753;-70
2023/02/04 14:18:15;;;;;;;6.57;2.60;;;-0.50;99.90;;;;;;4415808;28;656610;-70
2023/02/04 14:21:03;;;;;;;5.17;2.17;;;-0.60;99.90;;;;;;4441558;28;658083;-70
2023/02/04 14:23:50;;;;;;;6.57;2.57;;;-0.90;99.90;;;;;;4436476;28;657429;-70
2023/02/04 14:26:39;;;;;;;7.93;3.00;;;-0.80;99.90;;;;;;4442135;28;657913;-70
2023/02/04 14:29:26;;;;;;;6.47;2.63;;;-0.70;99.90;;;;;;4420953;28;657794;-70